sensor_id;sensor_type;location;lat;lon;timestamp;P1;durP1;ratioP1;P2;durP2;ratioP2
43152;SDS011;28756;49.064;9.290;2023-07-13T00:00:24;2.47;;;1.13;;
43152;SDS011;28756;49.064;9.290;2023-07-13T00:02:50;3.70;;;1.13;;
43152;SDS011;28756;49.064;9.290;2023-07-13T00:05:18;3.38;;;1.00;;
43152;SDS011;28756;49.064;9.290;2023-07-13T00:07:49;1.45;;;0.88;;
43152;SDS011;28756;49.064;9.290;2023-07-13T00:10:15;1.48;;;0.90;;
43152;SDS011;28756;49.064;9.290;2023-07-13T00:12:42;0.80;;;0.63;;
43152;SDS011;28756;49.064;9.290;2023-07-13T00:15:17;2.85;;;0.90;;
43152;SDS011;28756;49.064;9.290;2023-07-13T00:17:57;1.55;;;0.85;;
43152;SDS011;28756;49.064;9.290;2023-07-13T00:20:23;1.27;;;0.80;;
43152;SDS011;28756;49.064;9.290;2023-07-13T00:22:50;1.45;;;0.80;;
43152;SDS011;28756;49.064;9.290;2023-07-13T00:25:21;1.33;;;0.80;;
43152;SDS011;28756;49.064;9.290;2023-07-13T00:27:49;2.42;;;0.82;;
43152;SDS011;28756;49.064;9.290;2023-07-13T00:30:16;1.42;;;0.80;;
43152;SDS011;28756;49.064;9.290;2023-07-13T00:32:42;2.78;;;0.93;;
43152;SDS011;28756;49.064;9.290;2023-07-13T00:35:08;2.45;;;0.90;;
43152;SDS011;28756;49.064;9.290;2023-07-13T00:37:34;1.17;;;0.75;;
43152;SDS011;28756;49.064;9.290;2023-07-13T00:40:02;1.45;;;0.90;;
43152;SDS011;28756;49.064;9.290;2023-07-13T00:42:30;0.85;;;0.68;;
43152;SDS011;28756;49.064;9.290;2023-07-13T00:45:00;4.60;;;1.45;;
43152;SDS011;28756;49.064;9.290;2023-07-13T00:47:32;2.90;;;1.00;;
43152;SDS011;28756;49.064;9.290;2023-07-13T00:49:58;2.60;;;0.90;;
43152;SDS011;28756;49.064;9.290;2023-07-13T00:52:25;7.28;;;0.93;;
43152;SDS011;28756;49.064;9.290;2023-07-13T00:54:51;2.08;;;1.02;;
43152;SDS011;28756;49.064;9.290;2023-07-13T00:57:18;2.67;;;1.00;;
43152;SDS011;28756;49.064;9.290;2023-07-13T00:59:47;1.48;;;0.82;;
43152;SDS011;28756;49.064;9.290;2023-07-13T01:02:18;1.67;;;0.90;;
43152;SDS011;28756;49.064;9.290;2023-07-13T01:04:44;1.38;;;0.75;;
43152;SDS011;28756;49.064;9.290;2023-07-13T01:07:10;1.45;;;0.90;;
43152;SDS011;28756;49.064;9.290;2023-07-13T01:09:37;1.85;;;0.80;;
43152;SDS011;28756;49.064;9.290;2023-07-13T01:12:03;1.42;;;0.88;;
43152;SDS011;28756;49.064;9.290;2023-07-13T01:14:29;1.75;;;0.70;;
43152;SDS011;28756;49.064;9.290;2023-07-13T01:16:55;0.93;;;0.60;;
43152;SDS011;28756;49.064;9.290;2023-07-13T01:22:14;1.98;;;0.80;;
43152;SDS011;28756;49.064;9.290;2023-07-13T01:24:43;2.22;;;0.70;;
43152;SDS011;28756;49.064;9.290;2023-07-13T01:27:14;1.40;;;0.70;;
43152;SDS011;28756;49.064;9.290;2023-07-13T01:29:43;1.00;;;0.63;;
43152;SDS011;28756;49.064;9.290;2023-07-13T01:32:18;1.10;;;0.70;;
43152;SDS011;28756;49.064;9.290;2023-07-13T01:34:49;1.45;;;0.75;;
43152;SDS011;28756;49.064;9.290;2023-07-13T01:37:19;2.33;;;0.80;;
43152;SDS011;28756;49.064;9.290;2023-07-13T01:39:45;2.38;;;1.13;;
43152;SDS011;28756;49.064;9.290;2023-07-13T01:42:11;2.03;;;0.90;;
43152;SDS011;28756;49.064;9.290;2023-07-13T01:44:38;1.80;;;0.75;;
43152;SDS011;28756;49.064;9.290;2023-07-13T01:47:04;0.88;;;0.70;;
43152;SDS011;28756;49.064;9.290;2023-07-13T01:49:30;1.55;;;0.85;;
43152;SDS011;28756;49.064;9.290;2023-07-13T01:51:56;1.98;;;0.70;;
43152;SDS011;28756;49.064;9.290;2023-07-13T01:54:22;2.63;;;0.80;;
43152;SDS011;28756;49.064;9.290;2023-07-13T01:56:48;1.35;;;0.70;;
43152;SDS011;28756;49.064;9.290;2023-07-13T01:59:14;2.50;;;0.80;;
43152;SDS011;28756;49.064;9.290;2023-07-13T02:01:39;1.70;;;0.80;;
43152;SDS011;28756;49.064;9.290;2023-07-13T02:04:05;1.60;;;0.70;;
43152;SDS011;28756;49.064;9.290;2023-07-13T02:06:31;1.38;;;0.80;;
43152;SDS011;28756;49.064;9.290;2023-07-13T02:08:57;1.20;;;0.93;;
43152;SDS011;28756;49.064;9.290;2023-07-13T02:11:24;5.40;;;1.55;;
43152;SDS011;28756;49.064;9.290;2023-07-13T02:13:50;2.45;;;1.80;;
43152;SDS011;28756;49.064;9.290;2023-07-13T02:16:16;2.95;;;2.10;;
43152;SDS011;28756;49.064;9.290;2023-07-13T02:18:42;2.67;;;1.80;;
43152;SDS011;28756;49.064;9.290;2023-07-13T02:21:08;1.83;;;1.40;;
43152;SDS011;28756;49.064;9.290;2023-07-13T02:23:34;3.30;;;2.00;;
43152;SDS011;28756;49.064;9.290;2023-07-13T02:26:00;2.65;;;1.70;;
43152;SDS011;28756;49.064;9.290;2023-07-13T02:28:28;2.47;;;1.67;;
43152;SDS011;28756;49.064;9.290;2023-07-13T02:30:54;1.80;;;1.33;;
43152;SDS011;28756;49.064;9.290;2023-07-13T02:33:19;3.50;;;1.33;;
43152;SDS011;28756;49.064;9.290;2023-07-13T02:35:45;2.42;;;1.48;;
43152;SDS011;28756;49.064;9.290;2023-07-13T02:38:11;2.53;;;1.35;;
43152;SDS011;28756;49.064;9.290;2023-07-13T02:40:36;2.15;;;1.10;;
43152;SDS011;28756;49.064;9.290;2023-07-13T02:43:03;1.70;;;0.90;;
43152;SDS011;28756;49.064;9.290;2023-07-13T02:45:29;2.08;;;1.10;;
43152;SDS011;28756;49.064;9.290;2023-07-13T02:47:54;1.30;;;0.82;;
43152;SDS011;28756;49.064;9.290;2023-07-13T02:50:20;2.13;;;1.20;;
43152;SDS011;28756;49.064;9.290;2023-07-13T02:52:46;1.52;;;0.93;;
43152;SDS011;28756;49.064;9.290;2023-07-13T02:55:12;1.10;;;0.80;;
43152;SDS011;28756;49.064;9.290;2023-07-13T02:57:38;1.10;;;0.95;;
43152;SDS011;28756;49.064;9.290;2023-07-13T03:00:04;1.67;;;1.08;;
43152;SDS011;28756;49.064;9.290;2023-07-13T03:02:31;2.03;;;1.10;;
43152;SDS011;28756;49.064;9.290;2023-07-13T03:04:57;1.92;;;1.05;;
43152;SDS011;28756;49.064;9.290;2023-07-13T03:07:23;1.42;;;0.95;;
43152;SDS011;28756;49.064;9.290;2023-07-13T03:09:53;1.40;;;0.90;;
43152;SDS011;28756;49.064;9.290;2023-07-13T03:12:23;3.03;;;1.00;;
43152;SDS011;28756;49.064;9.290;2023-07-13T03:14:50;1.77;;;0.88;;
43152;SDS011;28756;49.064;9.290;2023-07-13T03:17:16;1.48;;;1.10;;
43152;SDS011;28756;49.064;9.290;2023-07-13T03:19:42;1.65;;;0.90;;
43152;SDS011;28756;49.064;9.290;2023-07-13T03:22:08;2.72;;;1.25;;
43152;SDS011;28756;49.064;9.290;2023-07-13T03:24:34;1.92;;;0.90;;
43152;SDS011;28756;49.064;9.290;2023-07-13T03:27:03;2.03;;;1.00;;
43152;SDS011;28756;49.064;9.290;2023-07-13T03:29:30;1.55;;;1.25;;
43152;SDS011;28756;49.064;9.290;2023-07-13T03:31:56;2.05;;;1.00;;
43152;SDS011;28756;49.064;9.290;2023-07-13T03:34:22;4.60;;;1.15;;
43152;SDS011;28756;49.064;9.290;2023-07-13T03:36:48;1.80;;;1.20;;
43152;SDS011;28756;49.064;9.290;2023-07-13T03:39:14;2.65;;;1.05;;
43152;SDS011;28756;49.064;9.290;2023-07-13T03:41:39;2.42;;;1.20;;
43152;SDS011;28756;49.064;9.290;2023-07-13T03:44:05;1.90;;;1.00;;
43152;SDS011;28756;49.064;9.290;2023-07-13T03:46:31;2.05;;;1.08;;
43152;SDS011;28756;49.064;9.290;2023-07-13T03:48:58;3.95;;;1.23;;
43152;SDS011;28756;49.064;9.290;2023-07-13T03:51:25;1.52;;;0.90;;
43152;SDS011;28756;49.064;9.290;2023-07-13T03:53:50;2.10;;;1.00;;
43152;SDS011;28756;49.064;9.290;2023-07-13T03:56:17;1.55;;;1.10;;
43152;SDS011;28756;49.064;9.290;2023-07-13T03:58:45;4.05;;;1.00;;
43152;SDS011;28756;49.064;9.290;2023-07-13T04:01:14;1.63;;;1.25;;
43152;SDS011;28756;49.064;9.290;2023-07-13T04:03:49;5.15;;;1.23;;
43152;SDS011;28756;49.064;9.290;2023-07-13T04:06:36;2.83;;;1.10;;
43152;SDS011;28756;49.064;9.290;2023-07-13T04:09:02;2.80;;;1.25;;
43152;SDS011;28756;49.064;9.290;2023-07-13T04:11:30;1.30;;;1.00;;
43152;SDS011;28756;49.064;9.290;2023-07-13T04:13:57;1.15;;;1.00;;
43152;SDS011;28756;49.064;9.290;2023-07-13T04:16:24;2.30;;;1.13;;
43152;SDS011;28756;49.064;9.290;2023-07-13T04:18:51;1.80;;;1.15;;
43152;SDS011;28756;49.064;9.290;2023-07-13T04:21:19;2.78;;;1.27;;
43152;SDS011;28756;49.064;9.290;2023-07-13T04:23:46;2.63;;;1.13;;
43152;SDS011;28756;49.064;9.290;2023-07-13T04:26:11;1.92;;;1.00;;
43152;SDS011;28756;49.064;9.290;2023-07-13T04:28:37;2.67;;;1.10;;
43152;SDS011;28756;49.064;9.290;2023-07-13T04:31:03;1.38;;;0.90;;
43152;SDS011;28756;49.064;9.290;2023-07-13T04:33:29;6.45;;;2.38;;
43152;SDS011;28756;49.064;9.290;2023-07-13T04:35:55;7.25;;;2.03;;
43152;SDS011;28756;49.064;9.290;2023-07-13T04:38:26;5.07;;;1.50;;
43152;SDS011;28756;49.064;9.290;2023-07-13T04:40:55;6.35;;;1.30;;
43152;SDS011;28756;49.064;9.290;2023-07-13T04:43:23;2.45;;;1.20;;
43152;SDS011;28756;49.064;9.290;2023-07-13T04:45:50;3.28;;;1.30;;
43152;SDS011;28756;49.064;9.290;2023-07-13T04:48:17;1.77;;;1.20;;
43152;SDS011;28756;49.064;9.290;2023-07-13T04:50:42;3.15;;;1.20;;
43152;SDS011;28756;49.064;9.290;2023-07-13T04:53:09;2.17;;;1.17;;
43152;SDS011;28756;49.064;9.290;2023-07-13T04:55:35;2.35;;;1.23;;
43152;SDS011;28756;49.064;9.290;2023-07-13T04:58:02;1.75;;;1.05;;
43152;SDS011;28756;49.064;9.290;2023-07-13T05:00:28;1.50;;;1.10;;
43152;SDS011;28756;49.064;9.290;2023-07-13T05:02:55;9.18;;;2.08;;
43152;SDS011;28756;49.064;9.290;2023-07-13T05:05:22;5.18;;;2.00;;
43152;SDS011;28756;49.064;9.290;2023-07-13T05:07:50;5.10;;;2.00;;
43152;SDS011;28756;49.064;9.290;2023-07-13T05:10:17;5.63;;;1.63;;
43152;SDS011;28756;49.064;9.290;2023-07-13T05:12:43;5.10;;;1.40;;
43152;SDS011;28756;49.064;9.290;2023-07-13T05:15:09;2.78;;;1.48;;
43152;SDS011;28756;49.064;9.290;2023-07-13T05:17:35;5.03;;;1.30;;
43152;SDS011;28756;49.064;9.290;2023-07-13T05:20:01;3.35;;;1.20;;
43152;SDS011;28756;49.064;9.290;2023-07-13T05:22:27;3.10;;;0.98;;
43152;SDS011;28756;49.064;9.290;2023-07-13T05:24:53;2.58;;;1.10;;
43152;SDS011;28756;49.064;9.290;2023-07-13T05:27:19;2.13;;;1.40;;
43152;SDS011;28756;49.064;9.290;2023-07-13T05:29:45;2.40;;;1.30;;
43152;SDS011;28756;49.064;9.290;2023-07-13T05:32:10;2.05;;;1.38;;
43152;SDS011;28756;49.064;9.290;2023-07-13T05:34:36;2.55;;;1.33;;
43152;SDS011;28756;49.064;9.290;2023-07-13T05:37:02;3.78;;;1.48;;
43152;SDS011;28756;49.064;9.290;2023-07-13T05:39:28;2.42;;;1.70;;
43152;SDS011;28756;49.064;9.290;2023-07-13T05:41:54;3.53;;;1.63;;
43152;SDS011;28756;49.064;9.290;2023-07-13T05:44:19;4.13;;;1.70;;
43152;SDS011;28756;49.064;9.290;2023-07-13T05:46:45;3.40;;;1.60;;
43152;SDS011;28756;49.064;9.290;2023-07-13T05:49:11;4.15;;;1.48;;
43152;SDS011;28756;49.064;9.290;2023-07-13T05:51:37;2.63;;;1.10;;
43152;SDS011;28756;49.064;9.290;2023-07-13T05:54:03;1.98;;;1.42;;
43152;SDS011;28756;49.064;9.290;2023-07-13T05:56:28;2.10;;;1.40;;
43152;SDS011;28756;49.064;9.290;2023-07-13T05:58:54;3.10;;;1.40;;
43152;SDS011;28756;49.064;9.290;2023-07-13T06:01:21;3.22;;;1.40;;
43152;SDS011;28756;49.064;9.290;2023-07-13T06:03:48;2.13;;;1.25;;
43152;SDS011;28756;49.064;9.290;2023-07-13T06:06:15;3.40;;;1.40;;
43152;SDS011;28756;49.064;9.290;2023-07-13T06:08:41;2.38;;;1.15;;
43152;SDS011;28756;49.064;9.290;2023-07-13T06:11:09;5.22;;;1.58;;
43152;SDS011;28756;49.064;9.290;2023-07-13T06:13:41;3.22;;;1.15;;
43152;SDS011;28756;49.064;9.290;2023-07-13T06:16:07;1.85;;;1.50;;
43152;SDS011;28756;49.064;9.290;2023-07-13T06:18:34;2.03;;;1.30;;
43152;SDS011;28756;49.064;9.290;2023-07-13T06:21:08;2.95;;;1.35;;
43152;SDS011;28756;49.064;9.290;2023-07-13T06:23:40;2.03;;;1.13;;
43152;SDS011;28756;49.064;9.290;2023-07-13T06:26:06;3.00;;;1.45;;
43152;SDS011;28756;49.064;9.290;2023-07-13T06:28:33;2.22;;;1.23;;
43152;SDS011;28756;49.064;9.290;2023-07-13T06:31:00;1.35;;;1.00;;
43152;SDS011;28756;49.064;9.290;2023-07-13T06:33:26;1.77;;;1.40;;
43152;SDS011;28756;49.064;9.290;2023-07-13T06:35:52;1.77;;;1.05;;
43152;SDS011;28756;49.064;9.290;2023-07-13T06:38:20;3.20;;;1.25;;
43152;SDS011;28756;49.064;9.290;2023-07-13T06:40:46;2.17;;;1.42;;
43152;SDS011;28756;49.064;9.290;2023-07-13T06:43:12;3.83;;;1.42;;
43152;SDS011;28756;49.064;9.290;2023-07-13T06:45:41;3.53;;;1.10;;
43152;SDS011;28756;49.064;9.290;2023-07-13T06:48:13;2.35;;;1.10;;
43152;SDS011;28756;49.064;9.290;2023-07-13T06:50:40;2.58;;;1.70;;
43152;SDS011;28756;49.064;9.290;2023-07-13T06:53:07;2.45;;;1.20;;
43152;SDS011;28756;49.064;9.290;2023-07-13T06:55:37;2.50;;;1.55;;
43152;SDS011;28756;49.064;9.290;2023-07-13T06:58:03;5.18;;;1.60;;
43152;SDS011;28756;49.064;9.290;2023-07-13T07:00:29;1.75;;;1.10;;
43152;SDS011;28756;49.064;9.290;2023-07-13T07:02:54;1.45;;;1.17;;
43152;SDS011;28756;49.064;9.290;2023-07-13T07:05:20;2.15;;;1.20;;
43152;SDS011;28756;49.064;9.290;2023-07-13T07:07:47;2.17;;;1.02;;
43152;SDS011;28756;49.064;9.290;2023-07-13T07:10:15;2.47;;;1.30;;
43152;SDS011;28756;49.064;9.290;2023-07-13T07:12:41;2.72;;;1.40;;
43152;SDS011;28756;49.064;9.290;2023-07-13T07:15:06;2.85;;;1.10;;
43152;SDS011;28756;49.064;9.290;2023-07-13T07:17:32;2.47;;;1.02;;
43152;SDS011;28756;49.064;9.290;2023-07-13T07:19:58;1.80;;;1.05;;
43152;SDS011;28756;49.064;9.290;2023-07-13T07:22:24;3.20;;;1.23;;
43152;SDS011;28756;49.064;9.290;2023-07-13T07:24:53;1.50;;;1.00;;
43152;SDS011;28756;49.064;9.290;2023-07-13T07:27:19;2.25;;;0.90;;
43152;SDS011;28756;49.064;9.290;2023-07-13T07:29:45;1.33;;;0.82;;
43152;SDS011;28756;49.064;9.290;2023-07-13T07:32:11;2.20;;;0.90;;
43152;SDS011;28756;49.064;9.290;2023-07-13T07:34:37;3.13;;;1.15;;
43152;SDS011;28756;49.064;9.290;2023-07-13T07:37:03;3.92;;;0.85;;
43152;SDS011;28756;49.064;9.290;2023-07-13T07:39:29;2.20;;;1.02;;
43152;SDS011;28756;49.064;9.290;2023-07-13T07:41:55;4.30;;;1.13;;
43152;SDS011;28756;49.064;9.290;2023-07-13T07:44:21;3.45;;;1.13;;
43152;SDS011;28756;49.064;9.290;2023-07-13T07:46:47;2.45;;;1.05;;
43152;SDS011;28756;49.064;9.290;2023-07-13T07:49:13;1.48;;;1.00;;
43152;SDS011;28756;49.064;9.290;2023-07-13T07:51:39;2.50;;;0.93;;
43152;SDS011;28756;49.064;9.290;2023-07-13T07:54:05;4.60;;;1.35;;
43152;SDS011;28756;49.064;9.290;2023-07-13T07:56:31;1.27;;;0.75;;
43152;SDS011;28756;49.064;9.290;2023-07-13T07:58:58;1.88;;;1.00;;
43152;SDS011;28756;49.064;9.290;2023-07-13T08:01:23;3.55;;;0.90;;
43152;SDS011;28756;49.064;9.290;2023-07-13T08:03:49;1.40;;;0.80;;
43152;SDS011;28756;49.064;9.290;2023-07-13T08:06:15;2.10;;;0.90;;
43152;SDS011;28756;49.064;9.290;2023-07-13T08:08:41;3.42;;;0.70;;
43152;SDS011;28756;49.064;9.290;2023-07-13T08:11:07;1.35;;;0.70;;
43152;SDS011;28756;49.064;9.290;2023-07-13T08:13:34;2.33;;;0.90;;
43152;SDS011;28756;49.064;9.290;2023-07-13T08:16:00;3.17;;;0.90;;
43152;SDS011;28756;49.064;9.290;2023-07-13T08:18:26;1.33;;;0.77;;
43152;SDS011;28756;49.064;9.290;2023-07-13T08:20:55;2.80;;;0.88;;
43152;SDS011;28756;49.064;9.290;2023-07-13T08:23:22;1.20;;;0.70;;
43152;SDS011;28756;49.064;9.290;2023-07-13T08:25:51;1.73;;;0.65;;
43152;SDS011;28756;49.064;9.290;2023-07-13T08:28:19;2.42;;;0.95;;
43152;SDS011;28756;49.064;9.290;2023-07-13T08:30:46;1.45;;;0.73;;
43152;SDS011;28756;49.064;9.290;2023-07-13T08:33:16;2.53;;;1.00;;
43152;SDS011;28756;49.064;9.290;2023-07-13T08:35:47;2.60;;;0.98;;
43152;SDS011;28756;49.064;9.290;2023-07-13T08:38:14;1.05;;;0.60;;
43152;SDS011;28756;49.064;9.290;2023-07-13T08:40:42;2.03;;;0.70;;
43152;SDS011;28756;49.064;9.290;2023-07-13T08:43:18;2.40;;;0.70;;
43152;SDS011;28756;49.064;9.290;2023-07-13T08:45:51;2.45;;;0.70;;
43152;SDS011;28756;49.064;9.290;2023-07-13T08:48:28;1.35;;;0.70;;
43152;SDS011;28756;49.064;9.290;2023-07-13T08:51:02;1.38;;;0.70;;
43152;SDS011;28756;49.064;9.290;2023-07-13T08:54:22;2.35;;;0.88;;
43152;SDS011;28756;49.064;9.290;2023-07-13T08:57:00;2.70;;;0.73;;
43152;SDS011;28756;49.064;9.290;2023-07-13T08:59:45;1.77;;;0.80;;
43152;SDS011;28756;49.064;9.290;2023-07-13T09:05:29;1.73;;;0.70;;
43152;SDS011;28756;49.064;9.290;2023-07-13T09:11:18;1.30;;;0.82;;
43152;SDS011;28756;49.064;9.290;2023-07-13T09:17:03;2.22;;;0.70;;
43152;SDS011;28756;49.064;9.290;2023-07-13T09:19:37;1.48;;;0.60;;
43152;SDS011;28756;49.064;9.290;2023-07-13T09:22:06;2.10;;;0.80;;
43152;SDS011;28756;49.064;9.290;2023-07-13T09:24:44;2.33;;;0.90;;
43152;SDS011;28756;49.064;9.290;2023-07-13T09:27:33;2.55;;;0.75;;
43152;SDS011;28756;49.064;9.290;2023-07-13T09:32:40;1.33;;;0.60;;
43152;SDS011;28756;49.064;9.290;2023-07-13T09:35:11;1.30;;;0.60;;
43152;SDS011;28756;49.064;9.290;2023-07-13T09:37:41;1.55;;;0.70;;
43152;SDS011;28756;49.064;9.290;2023-07-13T09:40:11;1.95;;;0.70;;
43152;SDS011;28756;49.064;9.290;2023-07-13T09:42:48;1.88;;;0.85;;
43152;SDS011;28756;49.064;9.290;2023-07-13T09:45:17;2.47;;;1.00;;
43152;SDS011;28756;49.064;9.290;2023-07-13T09:48:04;3.25;;;1.05;;
43152;SDS011;28756;49.064;9.290;2023-07-13T09:50:36;2.33;;;0.98;;
43152;SDS011;28756;49.064;9.290;2023-07-13T09:53:02;1.75;;;0.60;;
43152;SDS011;28756;49.064;9.290;2023-07-13T09:55:35;2.55;;;0.80;;
43152;SDS011;28756;49.064;9.290;2023-07-13T09:58:08;1.52;;;0.68;;
43152;SDS011;28756;49.064;9.290;2023-07-13T10:00:40;5.05;;;0.85;;
43152;SDS011;28756;49.064;9.290;2023-07-13T10:03:19;2.22;;;0.65;;
43152;SDS011;28756;49.064;9.290;2023-07-13T10:05:50;2.03;;;0.70;;
43152;SDS011;28756;49.064;9.290;2023-07-13T10:08:24;2.33;;;0.77;;
43152;SDS011;28756;49.064;9.290;2023-07-13T10:11:09;3.60;;;0.82;;
43152;SDS011;28756;49.064;9.290;2023-07-13T10:13:44;1.55;;;0.77;;
43152;SDS011;28756;49.064;9.290;2023-07-13T10:16:32;2.58;;;0.80;;
43152;SDS011;28756;49.064;9.290;2023-07-13T10:19:03;1.55;;;0.75;;
43152;SDS011;28756;49.064;9.290;2023-07-13T10:21:50;2.20;;;0.88;;
43152;SDS011;28756;49.064;9.290;2023-07-13T10:24:30;1.67;;;0.90;;
43152;SDS011;28756;49.064;9.290;2023-07-13T10:27:16;2.22;;;0.75;;
43152;SDS011;28756;49.064;9.290;2023-07-13T10:30:12;2.60;;;0.80;;
43152;SDS011;28756;49.064;9.290;2023-07-13T10:32:57;3.20;;;0.73;;
43152;SDS011;28756;49.064;9.290;2023-07-13T10:35:26;2.60;;;1.00;;
43152;SDS011;28756;49.064;9.290;2023-07-13T10:40:35;1.48;;;0.70;;
43152;SDS011;28756;49.064;9.290;2023-07-13T10:43:06;3.85;;;1.10;;
43152;SDS011;28756;49.064;9.290;2023-07-13T10:46:02;1.95;;;0.80;;
43152;SDS011;28756;49.064;9.290;2023-07-13T10:48:32;2.05;;;0.90;;
43152;SDS011;28756;49.064;9.290;2023-07-13T10:51:01;2.33;;;0.75;;
43152;SDS011;28756;49.064;9.290;2023-07-13T10:53:33;2.75;;;1.00;;
43152;SDS011;28756;49.064;9.290;2023-07-13T10:56:05;1.65;;;1.00;;
43152;SDS011;28756;49.064;9.290;2023-07-13T10:58:47;3.15;;;1.05;;
43152;SDS011;28756;49.064;9.290;2023-07-13T11:01:46;2.25;;;0.80;;
43152;SDS011;28756;49.064;9.290;2023-07-13T11:04:19;3.28;;;0.90;;
43152;SDS011;28756;49.064;9.290;2023-07-13T11:06:47;1.73;;;0.75;;
43152;SDS011;28756;49.064;9.290;2023-07-13T11:09:28;2.13;;;0.90;;
43152;SDS011;28756;49.064;9.290;2023-07-13T11:20:18;1.58;;;0.77;;
43152;SDS011;28756;49.064;9.290;2023-07-13T11:22:52;2.25;;;0.77;;
43152;SDS011;28756;49.064;9.290;2023-07-13T11:25:52;1.38;;;0.68;;
43152;SDS011;28756;49.064;9.290;2023-07-13T11:28:21;2.42;;;0.73;;
43152;SDS011;28756;49.064;9.290;2023-07-13T11:33:28;3.10;;;0.90;;
43152;SDS011;28756;49.064;9.290;2023-07-13T11:36:03;1.63;;;0.70;;
43152;SDS011;28756;49.064;9.290;2023-07-13T11:38:42;1.67;;;0.80;;
43152;SDS011;28756;49.064;9.290;2023-07-13T11:41:14;1.23;;;0.70;;
43152;SDS011;28756;49.064;9.290;2023-07-13T11:44:18;3.10;;;0.85;;
43152;SDS011;28756;49.064;9.290;2023-07-13T11:46:57;2.20;;;0.80;;
43152;SDS011;28756;49.064;9.290;2023-07-13T11:49:26;2.13;;;0.90;;
43152;SDS011;28756;49.064;9.290;2023-07-13T11:51:55;3.08;;;1.20;;
43152;SDS011;28756;49.064;9.290;2023-07-13T11:54:24;1.73;;;0.82;;
43152;SDS011;28756;49.064;9.290;2023-07-13T11:56:59;2.47;;;0.95;;
43152;SDS011;28756;49.064;9.290;2023-07-13T11:59:47;1.65;;;0.70;;
43152;SDS011;28756;49.064;9.290;2023-07-13T12:02:17;2.35;;;0.98;;
43152;SDS011;28756;49.064;9.290;2023-07-13T12:04:58;2.47;;;0.88;;
43152;SDS011;28756;49.064;9.290;2023-07-13T12:07:28;2.75;;;0.88;;
43152;SDS011;28756;49.064;9.290;2023-07-13T12:12:53;0.90;;;0.70;;
43152;SDS011;28756;49.064;9.290;2023-07-13T12:15:27;2.92;;;0.65;;
43152;SDS011;28756;49.064;9.290;2023-07-13T12:21:01;1.95;;;0.70;;
43152;SDS011;28756;49.064;9.290;2023-07-13T12:23:31;2.08;;;0.82;;
43152;SDS011;28756;49.064;9.290;2023-07-13T12:26:01;1.77;;;0.80;;
43152;SDS011;28756;49.064;9.290;2023-07-13T12:36:55;2.28;;;1.00;;
43152;SDS011;28756;49.064;9.290;2023-07-13T12:42:21;1.02;;;0.52;;
43152;SDS011;28756;49.064;9.290;2023-07-13T12:44:53;1.67;;;0.70;;
43152;SDS011;28756;49.064;9.290;2023-07-13T12:47:29;1.67;;;0.75;;
43152;SDS011;28756;49.064;9.290;2023-07-13T12:49:57;3.22;;;0.95;;
43152;SDS011;28756;49.064;9.290;2023-07-13T12:52:33;1.55;;;0.50;;
43152;SDS011;28756;49.064;9.290;2023-07-13T12:55:16;1.92;;;0.65;;
43152;SDS011;28756;49.064;9.290;2023-07-13T12:57:47;2.58;;;1.02;;
43152;SDS011;28756;49.064;9.290;2023-07-13T13:00:27;2.95;;;0.80;;
43152;SDS011;28756;49.064;9.290;2023-07-13T13:03:51;1.40;;;0.93;;
43152;SDS011;28756;49.064;9.290;2023-07-13T13:06:17;2.20;;;0.70;;
43152;SDS011;28756;49.064;9.290;2023-07-13T13:08:54;1.90;;;0.90;;
43152;SDS011;28756;49.064;9.290;2023-07-13T13:11:24;2.47;;;1.13;;
43152;SDS011;28756;49.064;9.290;2023-07-13T13:13:52;2.83;;;0.80;;
43152;SDS011;28756;49.064;9.290;2023-07-13T13:16:23;1.30;;;0.70;;
43152;SDS011;28756;49.064;9.290;2023-07-13T13:18:57;1.63;;;0.80;;
43152;SDS011;28756;49.064;9.290;2023-07-13T13:21:38;2.10;;;0.90;;
43152;SDS011;28756;49.064;9.290;2023-07-13T13:24:10;1.70;;;0.77;;
43152;SDS011;28756;49.064;9.290;2023-07-13T13:26:41;2.30;;;0.80;;
43152;SDS011;28756;49.064;9.290;2023-07-13T13:29:16;2.80;;;0.80;;
43152;SDS011;28756;49.064;9.290;2023-07-13T13:31:46;1.85;;;0.80;;
43152;SDS011;28756;49.064;9.290;2023-07-13T13:34:14;1.20;;;0.70;;
43152;SDS011;28756;49.064;9.290;2023-07-13T13:36:42;1.45;;;0.93;;
43152;SDS011;28756;49.064;9.290;2023-07-13T13:39:23;1.90;;;0.90;;
43152;SDS011;28756;49.064;9.290;2023-07-13T13:41:54;3.15;;;0.90;;
43152;SDS011;28756;49.064;9.290;2023-07-13T13:44:20;2.08;;;0.88;;
43152;SDS011;28756;49.064;9.290;2023-07-13T13:46:48;3.72;;;1.08;;
43152;SDS011;28756;49.064;9.290;2023-07-13T13:49:16;1.08;;;0.60;;
43152;SDS011;28756;49.064;9.290;2023-07-13T13:51:49;2.00;;;1.00;;
43152;SDS011;28756;49.064;9.290;2023-07-13T13:54:16;1.25;;;0.70;;
43152;SDS011;28756;49.064;9.290;2023-07-13T13:56:45;4.50;;;1.10;;
43152;SDS011;28756;49.064;9.290;2023-07-13T13:59:13;2.47;;;1.00;;
43152;SDS011;28756;49.064;9.290;2023-07-13T14:01:39;2.00;;;1.00;;
43152;SDS011;28756;49.064;9.290;2023-07-13T14:04:08;3.80;;;0.88;;
43152;SDS011;28756;49.064;9.290;2023-07-13T14:06:45;3.38;;;1.00;;
43152;SDS011;28756;49.064;9.290;2023-07-13T14:09:13;3.30;;;0.90;;
43152;SDS011;28756;49.064;9.290;2023-07-13T14:11:41;4.60;;;0.90;;
43152;SDS011;28756;49.064;9.290;2023-07-13T14:14:09;2.50;;;0.90;;
43152;SDS011;28756;49.064;9.290;2023-07-13T14:16:44;1.90;;;0.80;;
43152;SDS011;28756;49.064;9.290;2023-07-13T14:19:11;4.93;;;1.38;;
43152;SDS011;28756;49.064;9.290;2023-07-13T14:21:39;2.47;;;0.93;;
43152;SDS011;28756;49.064;9.290;2023-07-13T14:24:05;1.88;;;0.90;;
43152;SDS011;28756;49.064;9.290;2023-07-13T14:26:35;1.77;;;0.82;;
43152;SDS011;28756;49.064;9.290;2023-07-13T14:29:05;4.22;;;1.10;;
43152;SDS011;28756;49.064;9.290;2023-07-13T14:31:42;1.88;;;0.77;;
43152;SDS011;28756;49.064;9.290;2023-07-13T14:34:10;1.50;;;0.75;;
43152;SDS011;28756;49.064;9.290;2023-07-13T14:36:38;1.80;;;0.80;;
43152;SDS011;28756;49.064;9.290;2023-07-13T14:39:14;1.55;;;0.80;;
43152;SDS011;28756;49.064;9.290;2023-07-13T14:41:52;2.78;;;0.70;;
43152;SDS011;28756;49.064;9.290;2023-07-13T14:44:21;2.88;;;1.13;;
43152;SDS011;28756;49.064;9.290;2023-07-13T14:46:54;2.15;;;1.00;;
43152;SDS011;28756;49.064;9.290;2023-07-13T14:49:28;3.08;;;0.95;;
43152;SDS011;28756;49.064;9.290;2023-07-13T14:52:13;3.20;;;1.00;;
43152;SDS011;28756;49.064;9.290;2023-07-13T14:54:46;1.15;;;0.75;;
43152;SDS011;28756;49.064;9.290;2023-07-13T14:57:14;2.67;;;0.95;;
43152;SDS011;28756;49.064;9.290;2023-07-13T14:59:44;2.42;;;1.00;;
43152;SDS011;28756;49.064;9.290;2023-07-13T15:02:24;2.55;;;0.88;;
43152;SDS011;28756;49.064;9.290;2023-07-13T15:04:58;4.20;;;1.13;;
43152;SDS011;28756;49.064;9.290;2023-07-13T15:07:24;1.58;;;0.80;;
43152;SDS011;28756;49.064;9.290;2023-07-13T15:09:51;2.67;;;0.80;;
43152;SDS011;28756;49.064;9.290;2023-07-13T15:12:17;2.30;;;0.73;;
43152;SDS011;28756;49.064;9.290;2023-07-13T15:14:44;3.10;;;0.80;;
43152;SDS011;28756;49.064;9.290;2023-07-13T15:17:44;3.85;;;0.80;;
43152;SDS011;28756;49.064;9.290;2023-07-13T15:20:14;1.63;;;0.70;;
43152;SDS011;28756;49.064;9.290;2023-07-13T15:22:44;2.08;;;0.90;;
43152;SDS011;28756;49.064;9.290;2023-07-13T15:25:13;2.10;;;0.70;;
43152;SDS011;28756;49.064;9.290;2023-07-13T15:27:43;2.33;;;0.90;;
43152;SDS011;28756;49.064;9.290;2023-07-13T15:30:10;2.47;;;0.80;;
43152;SDS011;28756;49.064;9.290;2023-07-13T15:32:37;2.42;;;0.75;;
43152;SDS011;28756;49.064;9.290;2023-07-13T15:35:04;1.52;;;0.82;;
43152;SDS011;28756;49.064;9.290;2023-07-13T15:37:37;1.45;;;0.75;;
43152;SDS011;28756;49.064;9.290;2023-07-13T15:40:04;1.55;;;0.77;;
43152;SDS011;28756;49.064;9.290;2023-07-13T15:42:32;2.42;;;0.90;;
43152;SDS011;28756;49.064;9.290;2023-07-13T15:44:57;3.38;;;0.70;;
43152;SDS011;28756;49.064;9.290;2023-07-13T15:47:23;3.75;;;0.63;;
43152;SDS011;28756;49.064;9.290;2023-07-13T15:49:49;3.00;;;1.00;;